sensor_id;sensor_type;location;lat;lon;timestamp;temperature;humidity
39777;DHT22;25453;48.162;14.510;2022-09-09T00:15:47;17.10;77.00
39777;DHT22;25453;48.162;14.510;2022-09-09T00:18:37;17.10;77.00
39777;DHT22;25453;48.162;14.510;2022-09-09T00:21:13;17.00;77.00
39777;DHT22;25453;48.162;14.510;2022-09-09T00:23:51;16.90;77.40
39777;DHT22;25453;48.162;14.510;2022-09-09T00:29:14;16.90;77.80
39777;DHT22;25453;48.162;14.510;2022-09-09T00:31:50;17.00;77.80
39777;DHT22;25453;48.162;14.510;2022-09-09T00:34:27;17.00;77.70
39777;DHT22;25453;48.162;14.510;2022-09-09T00:37:01;17.10;77.60
39777;DHT22;25453;48.162;14.510;2022-09-09T00:39:42;17.10;77.60
39777;DHT22;25453;48.162;14.510;2022-09-09T00:42:17;17.10;77.80
39777;DHT22;25453;48.162;14.510;2022-09-09T00:50:10;17.30;77.30
39777;DHT22;25453;48.162;14.510;2022-09-09T00:55:17;17.40;77.40
39777;DHT22;25453;48.162;14.510;2022-09-09T00:57:52;17.40;77.10
39777;DHT22;25453;48.162;14.510;2022-09-09T01:08:01;17.30;76.50
39777;DHT22;25453;48.162;14.510;2022-09-09T01:10:33;17.20;76.50
39777;DHT22;25453;48.162;14.510;2022-09-09T01:13:13;17.20;76.60
39777;DHT22;25453;48.162;14.510;2022-09-09T01:15:54;17.10;76.50
39777;DHT22;25453;48.162;14.510;2022-09-09T01:18:37;17.10;76.30
39777;DHT22;25453;48.162;14.510;2022-09-09T01:26:28;17.00;76.30
39777;DHT22;25453;48.162;14.510;2022-09-09T01:29:06;17.00;76.60
39777;DHT22;25453;48.162;14.510;2022-09-09T01:31:41;17.00;76.40
39777;DHT22;25453;48.162;14.510;2022-09-09T01:34:14;16.90;76.50
39777;DHT22;25453;48.162;14.510;2022-09-09T01:36:59;16.90;76.60
39777;DHT22;25453;48.162;14.510;2022-09-09T01:39:34;16.90;76.60
39777;DHT22;25453;48.162;14.510;2022-09-09T01:42:02;16.80;76.50
39777;DHT22;25453;48.162;14.510;2022-09-09T01:44:36;16.80;76.40
39777;DHT22;25453;48.162;14.510;2022-09-09T01:47:04;16.80;76.50
39777;DHT22;25453;48.162;14.510;2022-09-09T01:49:37;16.80;76.20
39777;DHT22;25453;48.162;14.510;2022-09-09T01:52:04;16.80;76.10
39777;DHT22;25453;48.162;14.510;2022-09-09T01:54:38;16.80;76.10
39777;DHT22;25453;48.162;14.510;2022-09-09T02:05:13;16.70;75.60
39777;DHT22;25453;48.162;14.510;2022-09-09T02:07:50;16.70;75.80
39777;DHT22;25453;48.162;14.510;2022-09-09T02:10:42;16.70;75.60
39777;DHT22;25453;48.162;14.510;2022-09-09T02:13:18;16.70;75.80
39777;DHT22;25453;48.162;14.510;2022-09-09T02:15:55;16.70;75.80
39777;DHT22;25453;48.162;14.510;2022-09-09T02:21:18;16.70;75.60
39777;DHT22;25453;48.162;14.510;2022-09-09T02:23:47;16.70;75.50
39777;DHT22;25453;48.162;14.510;2022-09-09T02:26:21;16.70;75.40
39777;DHT22;25453;48.162;14.510;2022-09-09T02:28:50;16.60;75.30
39777;DHT22;25453;48.162;14.510;2022-09-09T02:31:24;16.60;75.00
39777;DHT22;25453;48.162;14.510;2022-09-09T02:33:59;16.60;75.00
39777;DHT22;25453;48.162;14.510;2022-09-09T02:36:28;16.60;75.00
39777;DHT22;25453;48.162;14.510;2022-09-09T02:39:02;16.60;75.10
39777;DHT22;25453;48.162;14.510;2022-09-09T02:41:33;16.60;75.00
39777;DHT22;25453;48.162;14.510;2022-09-09T02:44:11;16.60;75.00
39777;DHT22;25453;48.162;14.510;2022-09-09T02:50:01;16.60;74.90
39777;DHT22;25453;48.162;14.510;2022-09-09T02:55:14;16.60;75.20
39777;DHT22;25453;48.162;14.510;2022-09-09T02:57:44;16.60;75.10
39777;DHT22;25453;48.162;14.510;2022-09-09T03:00:24;16.60;75.20
39777;DHT22;25453;48.162;14.510;2022-09-09T03:02:51;16.60;75.40
39777;DHT22;25453;48.162;14.510;2022-09-09T03:05:24;16.60;75.60
39777;DHT22;25453;48.162;14.510;2022-09-09T03:07:53;16.60;75.60
39777;DHT22;25453;48.162;14.510;2022-09-09T03:10:27;16.60;75.60
39777;DHT22;25453;48.162;14.510;2022-09-09T03:12:53;16.60;75.50
39777;DHT22;25453;48.162;14.510;2022-09-09T03:15:29;16.60;75.60
39777;DHT22;25453;48.162;14.510;2022-09-09T03:17:58;16.60;75.90
39777;DHT22;25453;48.162;14.510;2022-09-09T03:20:38;16.70;75.90
39777;DHT22;25453;48.162;14.510;2022-09-09T03:23:05;16.60;75.70
39777;DHT22;25453;48.162;14.510;2022-09-09T03:25:47;16.60;75.80
39777;DHT22;25453;48.162;14.510;2022-09-09T03:28:15;16.50;75.80
39777;DHT22;25453;48.162;14.510;2022-09-09T03:30:48;16.50;76.20
39777;DHT22;25453;48.162;14.510;2022-09-09T03:33:15;16.50;76.30
39777;DHT22;25453;48.162;14.510;2022-09-09T03:35:49;16.50;76.20
39777;DHT22;25453;48.162;14.510;2022-09-09T03:38:17;16.50;76.50
39777;DHT22;25453;48.162;14.510;2022-09-09T03:40:51;16.50;76.40
39777;DHT22;25453;48.162;14.510;2022-09-09T03:43:27;16.50;76.30
39777;DHT22;25453;48.162;14.510;2022-09-09T03:45:54;16.50;76.20
39777;DHT22;25453;48.162;14.510;2022-09-09T03:48:31;16.50;76.10
39777;DHT22;25453;48.162;14.510;2022-09-09T03:50:58;16.50;76.10
39777;DHT22;25453;48.162;14.510;2022-09-09T03:53:33;16.50;76.00
39777;DHT22;25453;48.162;14.510;2022-09-09T03:56:00;16.50;76.10
39777;DHT22;25453;48.162;14.510;2022-09-09T03:58:35;16.50;76.30
39777;DHT22;25453;48.162;14.510;2022-09-09T04:01:10;16.60;76.50
39777;DHT22;25453;48.162;14.510;2022-09-09T04:03:40;16.70;76.40
39777;DHT22;25453;48.162;14.510;2022-09-09T04:06:08;16.70;76.40
39777;DHT22;25453;48.162;14.510;2022-09-09T04:08:42;16.80;76.20
39777;DHT22;25453;48.162;14.510;2022-09-09T04:11:16;16.80;75.90
39777;DHT22;25453;48.162;14.510;2022-09-09T04:13:50;16.70;75.80
39777;DHT22;25453;48.162;14.510;2022-09-09T04:16:30;16.70;75.60
39777;DHT22;25453;48.162;14.510;2022-09-09T04:19:11;16.70;75.80
39777;DHT22;25453;48.162;14.510;2022-09-09T04:21:46;16.60;75.60
39777;DHT22;25453;48.162;14.510;2022-09-09T04:24:24;16.60;75.60
39777;DHT22;25453;48.162;14.510;2022-09-09T04:27:00;16.50;75.80
39777;DHT22;25453;48.162;14.510;2022-09-09T04:29:33;16.50;75.60
39777;DHT22;25453;48.162;14.510;2022-09-09T04:32:06;16.50;75.70
39777;DHT22;25453;48.162;14.510;2022-09-09T04:34:39;16.50;75.60
39777;DHT22;25453;48.162;14.510;2022-09-09T04:37:07;16.40;75.70
39777;DHT22;25453;48.162;14.510;2022-09-09T04:39:40;16.40;75.80
39777;DHT22;25453;48.162;14.510;2022-09-09T04:42:07;16.40;75.80
39777;DHT22;25453;48.162;14.510;2022-09-09T04:44:41;16.40;75.60
39777;DHT22;25453;48.162;14.510;2022-09-09T04:47:09;16.40;75.80
39777;DHT22;25453;48.162;14.510;2022-09-09T04:49:36;16.40;75.80
39777;DHT22;25453;48.162;14.510;2022-09-09T04:52:11;16.50;75.70
39777;DHT22;25453;48.162;14.510;2022-09-09T04:54:44;16.50;75.60
39777;DHT22;25453;48.162;14.510;2022-09-09T04:57:12;16.50;75.60
39777;DHT22;25453;48.162;14.510;2022-09-09T04:59:45;16.50;75.50
39777;DHT22;25453;48.162;14.510;2022-09-09T05:02:12;16.50;75.40
39777;DHT22;25453;48.162;14.510;2022-09-09T05:04:46;16.50;75.40
39777;DHT22;25453;48.162;14.510;2022-09-09T05:07:12;16.50;75.30
39777;DHT22;25453;48.162;14.510;2022-09-09T05:09:41;16.40;75.20
39777;DHT22;25453;48.162;14.510;2022-09-09T05:12:17;16.40;75.20
39777;DHT22;25453;48.162;14.510;2022-09-09T05:14:44;16.40;75.40
39777;DHT22;25453;48.162;14.510;2022-09-09T05:17:24;16.40;75.30
39777;DHT22;25453;48.162;14.510;2022-09-09T05:20:05;16.50;75.30
39777;DHT22;25453;48.162;14.510;2022-09-09T05:22:42;16.50;75.50
39777;DHT22;25453;48.162;14.510;2022-09-09T05:25:10;16.60;75.60
39777;DHT22;25453;48.162;14.510;2022-09-09T05:27:37;16.70;75.40
39777;DHT22;25453;48.162;14.510;2022-09-09T05:30:11;16.70;75.10
39777;DHT22;25453;48.162;14.510;2022-09-09T05:32:38;16.80;74.90
39777;DHT22;25453;48.162;14.510;2022-09-09T05:35:12;16.70;74.80
39777;DHT22;25453;48.162;14.510;2022-09-09T05:37:46;16.70;74.90
39777;DHT22;25453;48.162;14.510;2022-09-09T05:40:20;16.70;74.70
39777;DHT22;25453;48.162;14.510;2022-09-09T05:42:48;16.70;74.70
39777;DHT22;25453;48.162;14.510;2022-09-09T05:45:22;16.70;74.90
39777;DHT22;25453;48.162;14.510;2022-09-09T05:47:54;16.70;74.90
39777;DHT22;25453;48.162;14.510;2022-09-09T05:50:21;16.80;75.20
39777;DHT22;25453;48.162;14.510;2022-09-09T05:52:57;16.80;75.40
39777;DHT22;25453;48.162;14.510;2022-09-09T05:55:30;16.90;75.20
39777;DHT22;25453;48.162;14.510;2022-09-09T05:58:03;17.00;75.00
39777;DHT22;25453;48.162;14.510;2022-09-09T06:00:37;17.00;75.00
39777;DHT22;25453;48.162;14.510;2022-09-09T06:03:04;17.00;75.00
39777;DHT22;25453;48.162;14.510;2022-09-09T06:05:38;17.00;75.10
39777;DHT22;25453;48.162;14.510;2022-09-09T06:08:11;17.10;75.00
39777;DHT22;25453;48.162;14.510;2022-09-09T06:10:45;17.10;74.90
39777;DHT22;25453;48.162;14.510;2022-09-09T06:13:12;17.10;74.90
39777;DHT22;25453;48.162;14.510;2022-09-09T06:15:50;17.10;74.90
39777;DHT22;25453;48.162;14.510;2022-09-09T06:18:25;17.10;75.10
39777;DHT22;25453;48.162;14.510;2022-09-09T06:20:59;17.10;75.30
39777;DHT22;25453;48.162;14.510;2022-09-09T06:23:35;17.10;75.30
39777;DHT22;25453;48.162;14.510;2022-09-09T06:26:13;17.10;75.30
39777;DHT22;25453;48.162;14.510;2022-09-09T06:28:40;17.20;75.40
39777;DHT22;25453;48.162;14.510;2022-09-09T06:31:16;17.20;75.30
39777;DHT22;25453;48.162;14.510;2022-09-09T06:33:44;17.20;75.30
39777;DHT22;25453;48.162;14.510;2022-09-09T06:36:19;17.10;75.20
39777;DHT22;25453;48.162;14.510;2022-09-09T06:38:46;17.10;75.30
39777;DHT22;25453;48.162;14.510;2022-09-09T06:41:21;17.10;75.40
39777;DHT22;25453;48.162;14.510;2022-09-09T06:43:56;17.10;75.50
39777;DHT22;25453;48.162;14.510;2022-09-09T06:46:30;17.10;75.70
39777;DHT22;25453;48.162;14.510;2022-09-09T06:49:00;17.10;75.50
39777;DHT22;25453;48.162;14.510;2022-09-09T06:51:34;17.10;75.70
39777;DHT22;25453;48.162;14.510;2022-09-09T06:54:09;17.20;75.90
39777;DHT22;25453;48.162;14.510;2022-09-09T06:56:37;17.20;75.80
39777;DHT22;25453;48.162;14.510;2022-09-09T06:59:14;17.30;75.80
39777;DHT22;25453;48.162;14.510;2022-09-09T07:01:42;17.30;76.00
39777;DHT22;25453;48.162;14.510;2022-09-09T07:04:21;17.30;76.10
39777;DHT22;25453;48.162;14.510;2022-09-09T07:06:54;17.40;76.10
39777;DHT22;25453;48.162;14.510;2022-09-09T07:09:27;17.50;76.00
39777;DHT22;25453;48.162;14.510;2022-09-09T07:11:56;17.50;76.10
39777;DHT22;25453;48.162;14.510;2022-09-09T07:14:31;17.50;76.10
39777;DHT22;25453;48.162;14.510;2022-09-09T07:16:58;17.60;76.20
39777;DHT22;25453;48.162;14.510;2022-09-09T07:19:45;17.60;76.20
39777;DHT22;25453;48.162;14.510;2022-09-09T07:22:12;17.60;76.20
39777;DHT22;25453;48.162;14.510;2022-09-09T07:24:46;17.70;76.30
39777;DHT22;25453;48.162;14.510;2022-09-09T07:27:13;17.80;76.10
39777;DHT22;25453;48.162;14.510;2022-09-09T07:29:46;17.80;76.20
39777;DHT22;25453;48.162;14.510;2022-09-09T07:32:20;17.80;76.30
39777;DHT22;25453;48.162;14.510;2022-09-09T07:34:47;17.90;76.20
39777;DHT22;25453;48.162;14.510;2022-09-09T07:37:20;17.90;76.20
39777;DHT22;25453;48.162;14.510;2022-09-09T07:39:55;17.90;76.10
39777;DHT22;25453;48.162;14.510;2022-09-09T07:42:22;18.00;76.00
39777;DHT22;25453;48.162;14.510;2022-09-09T07:44:55;17.90;75.90
39777;DHT22;25453;48.162;14.510;2022-09-09T07:47:22;17.90;76.10
39777;DHT22;25453;48.162;14.510;2022-09-09T07:49:57;17.90;76.20
39777;DHT22;25453;48.162;14.510;2022-09-09T07:52:33;17.90;76.30
39777;DHT22;25453;48.162;14.510;2022-09-09T07:55:00;18.00;76.30
39777;DHT22;25453;48.162;14.510;2022-09-09T07:57:34;18.00;76.40
39777;DHT22;25453;48.162;14.510;2022-09-09T08:00:09;18.00;76.20
39777;DHT22;25453;48.162;14.510;2022-09-09T08:02:37;18.00;76.30
39777;DHT22;25453;48.162;14.510;2022-09-09T08:05:11;18.10;76.20
39777;DHT22;25453;48.162;14.510;2022-09-09T08:07:39;18.10;76.20
39777;DHT22;25453;48.162;14.510;2022-09-09T08:10:13;18.10;76.00
39777;DHT22;25453;48.162;14.510;2022-09-09T08:12:41;18.10;76.10
39777;DHT22;25453;48.162;14.510;2022-09-09T08:15:33;18.10;76.10
39777;DHT22;25453;48.162;14.510;2022-09-09T08:18:01;18.00;76.20
39777;DHT22;25453;48.162;14.510;2022-09-09T08:20:48;18.10;76.40
39777;DHT22;25453;48.162;14.510;2022-09-09T08:23:21;18.10;76.30
39777;DHT22;25453;48.162;14.510;2022-09-09T08:25:55;18.10;76.40
39777;DHT22;25453;48.162;14.510;2022-09-09T08:28:23;18.10;76.50
39777;DHT22;25453;48.162;14.510;2022-09-09T08:31:04;18.20;76.50
39777;DHT22;25453;48.162;14.510;2022-09-09T08:33:38;18.20;76.30
39777;DHT22;25453;48.162;14.510;2022-09-09T08:36:05;18.20;76.30
39777;DHT22;25453;48.162;14.510;2022-09-09T08:38:33;18.30;76.30
39777;DHT22;25453;48.162;14.510;2022-09-09T08:41:30;18.30;76.20
39777;DHT22;25453;48.162;14.510;2022-09-09T08:44:05;18.30;76.20
39777;DHT22;25453;48.162;14.510;2022-09-09T08:49:25;18.30;76.00
39777;DHT22;25453;48.162;14.510;2022-09-09T08:52:03;18.30;76.00
39777;DHT22;25453;48.162;14.510;2022-09-09T08:54:37;18.30;76.10
39777;DHT22;25453;48.162;14.510;2022-09-09T08:57:25;18.30;76.20
39777;DHT22;25453;48.162;14.510;2022-09-09T08:59:53;18.30;76.40
39777;DHT22;25453;48.162;14.510;2022-09-09T09:02:38;18.30;76.40
39777;DHT22;25453;48.162;14.510;2022-09-09T09:07:49;18.30;76.60
39777;DHT22;25453;48.162;14.510;2022-09-09T09:10:36;18.20;76.60
39777;DHT22;25453;48.162;14.510;2022-09-09T09:16:23;18.10;77.00
39777;DHT22;25453;48.162;14.510;2022-09-09T09:19:07;18.10;77.30
39777;DHT22;25453;48.162;14.510;2022-09-09T09:22:26;18.10;77.60
39777;DHT22;25453;48.162;14.510;2022-09-09T09:30:00;18.20;77.40
39777;DHT22;25453;48.162;14.510;2022-09-09T09:33:06;18.20;77.30
39777;DHT22;25453;48.162;14.510;2022-09-09T09:35:42;18.20;77.40
39777;DHT22;25453;48.162;14.510;2022-09-09T09:38:24;18.20;77.40
39777;DHT22;25453;48.162;14.510;2022-09-09T09:41:11;18.20;77.50
39777;DHT22;25453;48.162;14.510;2022-09-09T09:43:52;18.20;77.70
39777;DHT22;25453;48.162;14.510;2022-09-09T09:46:25;18.30;77.70
39777;DHT22;25453;48.162;14.510;2022-09-09T09:49:00;18.30;77.70
39777;DHT22;25453;48.162;14.510;2022-09-09T09:51:34;18.30;77.50
39777;DHT22;25453;48.162;14.510;2022-09-09T09:54:17;18.30;77.70
39777;DHT22;25453;48.162;14.510;2022-09-09T09:56:51;18.30;77.80
39777;DHT22;25453;48.162;14.510;2022-09-09T09:59:19;18.30;77.80
39777;DHT22;25453;48.162;14.510;2022-09-09T10:04:38;18.40;77.90
39777;DHT22;25453;48.162;14.510;2022-09-09T10:07:13;18.40;78.10
39777;DHT22;25453;48.162;14.510;2022-09-09T10:09:42;18.50;78.10
39777;DHT22;25453;48.162;14.510;2022-09-09T10:20:34;18.50;77.80
39777;DHT22;25453;48.162;14.510;2022-09-09T10:28:55;18.70;78.60
39777;DHT22;25453;48.162;14.510;2022-09-09T10:31:36;18.90;78.40
39777;DHT22;25453;48.162;14.510;2022-09-09T10:37:11;19.10;77.70
39777;DHT22;25453;48.162;14.510;2022-09-09T10:39:51;19.10;77.40
39777;DHT22;25453;48.162;14.510;2022-09-09T10:42:26;19.20;77.40
39777;DHT22;25453;48.162;14.510;2022-09-09T10:50:42;19.50;77.30
39777;DHT22;25453;48.162;14.510;2022-09-09T10:56:22;19.90;76.60
39777;DHT22;25453;48.162;14.510;2022-09-09T10:58:59;19.90;76.00
39777;DHT22;25453;48.162;14.510;2022-09-09T11:04:15;20.00;75.50
39777;DHT22;25453;48.162;14.510;2022-09-09T11:06:54;19.90;75.40
39777;DHT22;25453;48.162;14.510;2022-09-09T11:09:22;20.00;75.30
39777;DHT22;25453;48.162;14.510;2022-09-09T11:11:58;20.00;75.10
39777;DHT22;25453;48.162;14.510;2022-09-09T11:17:15;20.00;75.00
39777;DHT22;25453;48.162;14.510;2022-09-09T11:19:58;20.00;74.90
39777;DHT22;25453;48.162;14.510;2022-09-09T11:24:59;20.10;74.80
39777;DHT22;25453;48.162;14.510;2022-09-09T11:33:35;20.30;74.80
39777;DHT22;25453;48.162;14.510;2022-09-09T11:36:25;20.50;75.00
39777;DHT22;25453;48.162;14.510;2022-09-09T11:41:40;20.80;73.40
39777;DHT22;25453;48.162;14.510;2022-09-09T11:44:18;20.80;73.00
39777;DHT22;25453;48.162;14.510;2022-09-09T11:46:49;20.70;72.70
39777;DHT22;25453;48.162;14.510;2022-09-09T11:49:42;20.70;72.60
39777;DHT22;25453;48.162;14.510;2022-09-09T11:52:35;20.60;72.70
39777;DHT22;25453;48.162;14.510;2022-09-09T11:55:09;20.60;72.80
39777;DHT22;25453;48.162;14.510;2022-09-09T11:57:45;20.50;72.70
39777;DHT22;25453;48.162;14.510;2022-09-09T12:05:52;20.20;72.80
39777;DHT22;25453;48.162;14.510;2022-09-09T12:08:28;20.20;72.90
39777;DHT22;25453;48.162;14.510;2022-09-09T12:10:59;20.10;73.10
39777;DHT22;25453;48.162;14.510;2022-09-09T12:13:37;20.10;73.40
39777;DHT22;25453;48.162;14.510;2022-09-09T12:16:04;20.10;73.50
39777;DHT22;25453;48.162;14.510;2022-09-09T12:18:48;20.10;73.60
39777;DHT22;25453;48.162;14.510;2022-09-09T12:24:23;20.10;73.90
39777;DHT22;25453;48.162;14.510;2022-09-09T12:29:31;20.10;74.00
39777;DHT22;25453;48.162;14.510;2022-09-09T12:32:10;20.10;74.00
39777;DHT22;25453;48.162;14.510;2022-09-09T12:34:44;20.10;74.00
39777;DHT22;25453;48.162;14.510;2022-09-09T12:37:32;20.10;74.00
39777;DHT22;25453;48.162;14.510;2022-09-09T12:40:24;20.10;74.00
39777;DHT22;25453;48.162;14.510;2022-09-09T12:42:51;20.10;73.90
39777;DHT22;25453;48.162;14.510;2022-09-09T12:45:26;20.10;73.90
39777;DHT22;25453;48.162;14.510;2022-09-09T12:50:27;20.10;73.80
39777;DHT22;25453;48.162;14.510;2022-09-09T12:52:55;20.10;74.00
39777;DHT22;25453;48.162;14.510;2022-09-09T12:55:27;20.10;73.90
39777;DHT22;25453;48.162;14.510;2022-09-09T12:58:03;20.00;73.80
39777;DHT22;25453;48.162;14.510;2022-09-09T13:00:33;20.00;73.80
39777;DHT22;25453;48.162;14.510;2022-09-09T13:03:16;20.00;73.80
39777;DHT22;25453;48.162;14.510;2022-09-09T13:05:43;19.90;73.80
39777;DHT22;25453;48.162;14.510;2022-09-09T13:08:17;19.90;73.90
39777;DHT22;25453;48.162;14.510;2022-09-09T13:11:02;19.80;74.00
39777;DHT22;25453;48.162;14.510;2022-09-09T13:13:37;19.80;74.00
39777;DHT22;25453;48.162;14.510;2022-09-09T13:16:06;19.80;74.10
39777;DHT22;25453;48.162;14.510;2022-09-09T13:18:47;19.70;74.10
39777;DHT22;25453;48.162;14.510;2022-09-09T13:21:33;19.70;74.20
39777;DHT22;25453;48.162;14.510;2022-09-09T13:24:01;19.70;74.30
39777;DHT22;25453;48.162;14.510;2022-09-09T13:26:36;19.70;74.40
39777;DHT22;25453;48.162;14.510;2022-09-09T13:29:14;19.60;74.50
39777;DHT22;25453;48.162;14.510;2022-09-09T13:31:51;19.60;74.40
39777;DHT22;25453;48.162;14.510;2022-09-09T13:37:00;19.60;74.60
39777;DHT22;25453;48.162;14.510;2022-09-09T13:39:29;19.60;74.70
39777;DHT22;25453;48.162;14.510;2022-09-09T13:41:56;19.50;74.70
39777;DHT22;25453;48.162;14.510;2022-09-09T13:44:30;19.50;74.70
39777;DHT22;25453;48.162;14.510;2022-09-09T13:47:17;19.50;74.80
39777;DHT22;25453;48.162;14.510;2022-09-09T13:49:46;19.50;75.00
39777;DHT22;25453;48.162;14.510;2022-09-09T13:52:20;19.50;75.10
39777;DHT22;25453;48.162;14.510;2022-09-09T13:54:49;19.50;75.20
39777;DHT22;25453;48.162;14.510;2022-09-09T13:57:23;19.50;75.20
39777;DHT22;25453;48.162;14.510;2022-09-09T13:59:52;19.50;75.30
39777;DHT22;25453;48.162;14.510;2022-09-09T14:02:31;19.50;75.30
39777;DHT22;25453;48.162;14.510;2022-09-09T14:04:58;19.50;75.30
39777;DHT22;25453;48.162;14.510;2022-09-09T14:07:32;19.40;75.30
39777;DHT22;25453;48.162;14.510;2022-09-09T14:10:05;19.40;75.40
39777;DHT22;25453;48.162;14.510;2022-09-09T14:12:40;19.40;75.40
39777;DHT22;25453;48.162;14.510;2022-09-09T14:15:09;19.40;75.40
39777;DHT22;25453;48.162;14.510;2022-09-09T14:17:49;19.30;75.40
39777;DHT22;25453;48.162;14.510;2022-09-09T14:20:30;19.30;75.40
39777;DHT22;25453;48.162;14.510;2022-09-09T14:23:03;19.30;75.40
39777;DHT22;25453;48.162;14.510;2022-09-09T14:25:29;19.30;75.40
39777;DHT22;25453;48.162;14.510;2022-09-09T14:28:04;19.30;75.40
39777;DHT22;25453;48.162;14.510;2022-09-09T14:30:38;19.30;75.50
39777;DHT22;25453;48.162;14.510;2022-09-09T14:33:06;19.30;75.40
39777;DHT22;25453;48.162;14.510;2022-09-09T14:35:39;19.30;75.30
39777;DHT22;25453;48.162;14.510;2022-09-09T14:38:08;19.30;75.20
39777;DHT22;25453;48.162;14.510;2022-09-09T14:40:44;19.30;75.10
39777;DHT22;25453;48.162;14.510;2022-09-09T14:43:19;19.20;75.20
39777;DHT22;25453;48.162;14.510;2022-09-09T14:45:53;19.20;75.30
39777;DHT22;25453;48.162;14.510;2022-09-09T14:48:19;19.20;75.30
39777;DHT22;25453;48.162;14.510;2022-09-09T14:50:53;19.20;75.30
39777;DHT22;25453;48.162;14.510;2022-09-09T14:53:19;19.20;75.20
39777;DHT22;25453;48.162;14.510;2022-09-09T14:55:48;19.10;75.10
39777;DHT22;25453;48.162;14.510;2022-09-09T14:58:22;19.10;75.20
39777;DHT22;25453;48.162;14.510;2022-09-09T15:00:49;19.10;75.30
39777;DHT22;25453;48.162;14.510;2022-09-09T15:03:22;19.00;75.30
39777;DHT22;25453;48.162;14.510;2022-09-09T15:05:49;19.00;75.40
39777;DHT22;25453;48.162;14.510;2022-09-09T15:08:18;19.00;75.50
39777;DHT22;25453;48.162;14.510;2022-09-09T15:10:58;19.00;75.50
39777;DHT22;25453;48.162;14.510;2022-09-09T15:13:25;19.00;75.70
39777;DHT22;25453;48.162;14.510;2022-09-09T15:18:50;18.90;76.00
39777;DHT22;25453;48.162;14.510;2022-09-09T15:21:18;18.90;76.20
39777;DHT22;25453;48.162;14.510;2022-09-09T15:23:52;18.80;76.30
39777;DHT22;25453;48.162;14.510;2022-09-09T15:26:19;18.80;76.50
39777;DHT22;25453;48.162;14.510;2022-09-09T15:28:53;18.80;76.60
39777;DHT22;25453;48.162;14.510;2022-09-09T15:31:21;18.70;77.00
39777;DHT22;25453;48.162;14.510;2022-09-09T15:33:56;18.70;77.30
39777;DHT22;25453;48.162;14.510;2022-09-09T15:36:30;18.70;77.40
39777;DHT22;25453;48.162;14.510;2022-09-09T15:39:06;18.70;77.50
39777;DHT22;25453;48.162;14.510;2022-09-09T15:41:33;18.60;77.80
39777;DHT22;25453;48.162;14.510;2022-09-09T15:44:07;18.60;78.10
39777;DHT22;25453;48.162;14.510;2022-09-09T15:46:38;18.60;78.10
39777;DHT22;25453;48.162;14.510;2022-09-09T15:49:12;18.60;78.20
39777;DHT22;25453;48.162;14.510;2022-09-09T15:51:47;18.60;78.50
39777;DHT22;25453;48.162;14.510;2022-09-09T15:54:17;18.60;78.80
39777;DHT22;25453;48.162;14.510;2022-09-09T15:56:52;18.60;78.80
39777;DHT22;25453;48.162;14.510;2022-09-09T15:59:19;18.60;78.90
39777;DHT22;25453;48.162;14.510;2022-09-09T16:01:53;18.50;79.10
39777;DHT22;25453;48.162;14.510;2022-09-09T16:04:27;18.50;79.20
39777;DHT22;25453;48.162;14.510;2022-09-09T16:06:58;18.50;79.50
39777;DHT22;25453;48.162;14.510;2022-09-09T16:09:32;18.50;79.60
39777;DHT22;25453;48.162;14.510;2022-09-09T16:11:59;18.50;79.60
39777;DHT22;25453;48.162;14.510;2022-09-09T16:14:39;18.50;79.70
39777;DHT22;25453;48.162;14.510;2022-09-09T16:17:06;18.50;79.80
39777;DHT22;25453;48.162;14.510;2022-09-09T16:19:53;18.40;79.90
39777;DHT22;25453;48.162;14.510;2022-09-09T16:22:27;18.40;80.20
39777;DHT22;25453;48.162;14.510;2022-09-09T16:24:53;18.40;80.30
39777;DHT22;25453;48.162;14.510;2022-09-09T16:27:27;18.40;80.40
39777;DHT22;25453;48.162;14.510;2022-09-09T16:30:00;18.40;80.40
39777;DHT22;25453;48.162;14.510;2022-09-09T16:32:27;18.40;80.70
39777;DHT22;25453;48.162;14.510;2022-09-09T16:35:01;18.40;80.80
39777;DHT22;25453;48.162;14.510;2022-09-09T16:37:28;18.40;80.70
39777;DHT22;25453;48.162;14.510;2022-09-09T16:40:02;18.40;80.90
39777;DHT22;25453;48.162;14.510;2022-09-09T16:42:36;18.40;81.00
39777;DHT22;25453;48.162;14.510;2022-09-09T16:45:10;18.40;81.00
39777;DHT22;25453;48.162;14.510;2022-09-09T16:47:37;18.40;81.00
39777;DHT22;25453;48.162;14.510;2022-09-09T16:50:10;18.30;81.20
39777;DHT22;25453;48.162;14.510;2022-09-09T16:52:36;18.40;81.40
39777;DHT22;25453;48.162;14.510;2022-09-09T16:55:10;18.40;81.60
39777;DHT22;25453;48.162;14.510;2022-09-09T16:57:38;18.40;81.50
39777;DHT22;25453;48.162;14.510;2022-09-09T17:00:12;18.40;81.60
39777;DHT22;25453;48.162;14.510;2022-09-09T17:02:39;18.40;81.60
39777;DHT22;25453;48.162;14.510;2022-09-09T17:05:12;18.40;81.60
39777;DHT22;25453;48.162;14.510;2022-09-09T17:07:39;18.40;81.60
39777;DHT22;25453;48.162;14.510;2022-09-09T17:10:13;18.40;81.60
39777;DHT22;25453;48.162;14.510;2022-09-09T17:12:40;18.40;81.60
39777;DHT22;25453;48.162;14.510;2022-09-09T17:15:14;18.40;81.80
39777;DHT22;25453;48.162;14.510;2022-09-09T17:17:41;18.40;81.70
39777;DHT22;25453;48.162;14.510;2022-09-09T17:20:23;18.40;81.60
39777;DHT22;25453;48.162;14.510;2022-09-09T17:23:11;18.40;81.80
39777;DHT22;25453;48.162;14.510;2022-09-09T17:25:41;18.40;81.80
39777;DHT22;25453;48.162;14.510;2022-09-09T17:28:16;18.40;81.90
39777;DHT22;25453;48.162;14.510;2022-09-09T17:30:43;18.40;81.90
39777;DHT22;25453;48.162;14.510;2022-09-09T17:33:10;18.40;81.90
39777;DHT22;25453;48.162;14.510;2022-09-09T17:35:44;18.50;81.90
39777;DHT22;25453;48.162;14.510;2022-09-09T17:38:18;18.40;81.80
39777;DHT22;25453;48.162;14.510;2022-09-09T17:41:29;18.40;81.80
39777;DHT22;25453;48.162;14.510;2022-09-09T17:43:47;18.40;81.80
39777;DHT22;25453;48.162;14.510;2022-09-09T17:46:29;18.30;82.00
39777;DHT22;25453;48.162;14.510;2022-09-09T17:49:07;18.30;82.10
39777;DHT22;25453;48.162;14.510;2022-09-09T17:51:42;18.40;82.10
39777;DHT22;25453;48.162;14.510;2022-09-09T17:54:16;18.40;82.10
39777;DHT22;25453;48.162;14.510;2022-09-09T17:56:44;18.30;82.00
39777;DHT22;25453;48.162;14.510;2022-09-09T17:59:18;18.30;82.00
39777;DHT22;25453;48.162;14.510;2022-09-09T18:01:45;18.30;82.00
39777;DHT22;25453;48.162;14.510;2022-09-09T18:04:20;18.30;82.10
39777;DHT22;25453;48.162;14.510;2022-09-09T18:06:48;18.30;82.20
39777;DHT22;25453;48.162;14.510;2022-09-09T18:09:23;18.30;82.20